نخجوان, جمهوری آذربایجان

06:31 AM AZT on مارس 05, 2015 (GMT +0400)
Nakchivan | Change Station
CLOSE
Current Station
Airport
Location: Nakchivan,
Elevation: 2864 ft
Nearby Weather Stations

Elev 2864 ft 39.19 °N, 45.46 °E | Updated 31 minutes ago

Light Rain
باران جزئى
37 °F
Feels Like 34 °F
N
5
باد متغير باد from غرب

امروز
High -- | Low -- °F
--% Chance of Precip.
دیروز
High -- | Low -- °F
Precip. -- در
7:25 AM 6:54 PM
ماه کامل, 100% visible
فشار 29.92 در
ديد 6.2 مايل، ميل (در برابر كيلومتر
ابری نيم ابرى 2600 ft
باد سرد 34 °F
قطره شبنم 36 °F
رطوبت 93%
بارش باران 0.00 در
برف عمیق Not available.
مادون قرمز 0 out of 12
Pollen Not available.
تمیزی هوا Not available.
Flu Activity Not available.
METAR UBBN 050200Z 28004KT 9999 -RA OVC026 03/02 Q1013 R14R/290050 NOSIG RMK MT OP QFE685

More Conditions Fewer Conditions

فشار 29.92 در
ديد 6.2 مايل، ميل (در برابر كيلومتر
ابری نيم ابرى 2600 ft
باد سرد 34 °F
قطره شبنم 36 °F
رطوبت 93%
بارش باران 0.00 در
برف عمیق Not available.
مادون قرمز 0 out of 12
Pollen Not available.
تمیزی هوا Not available.
Flu Activity Not available.
METAR UBBN 050200Z 28004KT 9999 -RA OVC026 03/02 Q1013 R14R/290050 NOSIG RMK MT OP QFE685

More Conditions Fewer Conditions

10-Day Weather Forecast

Almanac

ستاره شناسی

Mar. 05, 2015 Rise Set
وقت حقیقی
تاریک و روشن اجتماعی
تاریک روشن دریایی
شفق و فلق نجومی
ماه
میزان روشنایی روز
طول روز
Tomorrow will be .
, % of the Moon is Illuminated

Today's Extremes

Country Highs Country Lows

Community

WunderPhotos

Upload Photos

1,802,631 photos uploaded!

WunderBlogs® & News

Nearby

تمیزی هوا

  تمیزی هوا AQ Index آلاینده
Not available.

عمق برف

Station Depth Elevation

Earthquake Activity

شهر Distance Mag. Time & Date
Minimum magnitude displayed is 2.5.

Coastal Water Temperatures

منطقه درجه حرارت

Nearby Weather Stations